Eastern Wv Regional Shepherd Field
KMRB : now visible

Airfield :











YOU CAN JOIN US ON...

 
LOGIN :

Register | Disclaimer

   EN    FR    IT 

 









Legend :    VFR   Marginal VFR   IFR   Intensive IFR   Very Intensive IFR
Visi :
Ceiling :
>= 8 km
>= 3000ft
5 to 8 km
1000 to 3000 ft
1500m to 5 km
500 to 1000 ft
800 to 1500m
200 to 500 ft
< 800m
< 200 ft
Symbols :   Thunderstorms  Fog  Heavy snow  Heavy precipitations  Wind > 20 kt






- Airport Elevation : 565 ft


KMRB - Eastern Wv Regional Shepherd Field

CURRENT METAR :
  • 281253Z 21005KT 10SM SCT100 BKN120 17/16 A2991 RMK AO2 RAE39 SLP125 P0002 T01720156

EXPIRED METARs :
  • 281153Z 00000KT 8SM -RA FEW065 OVC100 17/14 A2993 RMK AO2 RAB00 SLP131 P0000 60000 T01720144 10211 20150 51019 $
  • 281053Z 19005KT 10SM SCT070 18/13 A2992 RMK AO2 SLP128 T01830133 $

TAF KMRB
Valid from the 28 at 12:00 until the 29 at 12:00 UTC


281135Z 2812/2912 19005KT P6SM -SHRA SCT050 OVC250
FM281500 25007G15KT P6SM SCT090
FM281800 28008KT P6SM SCT100
FM290000 34006KT P6SM SCT130
FM290500 01004KT P6SM FEW030
KZDC FIR / North America



MET'MAP, your aeronautical weather chart ! - Copyright ORBIFLY December 2007 - Disclaimer

ORBIFLY MET'MAP TEAM :

Programming & Development : Alexandra Zaïnal
Concept & original design : Baudouin d'Aumeries
Assistance for programming : Marc-Olivier Méhu
Technical & hardware support : Manuel Goepfert

Contact : metmap@orbifly.com




SOURCES & CREDITS :

   NOAA       Earth
Advisory